createdAt,value
2023-03-06T00:01:09.478Z,8.40
2023-03-06T00:04:15.021Z,11.90
2023-03-06T00:07:19.527Z,8.57
2023-03-06T00:10:30.530Z,9.07
2023-03-06T00:13:35.120Z,10.07
2023-03-06T00:16:39.592Z,9.48
2023-03-06T00:19:43.511Z,10.40
2023-03-06T00:22:47.820Z,11.48
2023-03-06T00:25:52.204Z,12.35
2023-03-06T00:28:56.412Z,11.98
2023-03-06T00:32:00.700Z,13.75
2023-03-06T00:35:05.739Z,12.88
2023-03-06T00:38:12.477Z,12.80
2023-03-06T00:41:17.140Z,12.25
2023-03-06T00:44:21.572Z,12.88
2023-03-06T00:47:25.970Z,12.05
2023-03-06T00:50:30.131Z,12.02
2023-03-06T00:53:34.373Z,10.43
2023-03-06T00:56:38.575Z,9.85
2023-03-06T00:59:43.018Z,9.52
2023-03-06T01:02:47.537Z,8.45
2023-03-06T01:05:51.782Z,9.15
2023-03-06T01:08:56.003Z,6.80
2023-03-06T01:12:00.473Z,6.82
2023-03-06T01:15:06.884Z,5.55
2023-03-06T01:18:11.368Z,4.63
2023-03-06T01:21:16.248Z,3.80
2023-03-06T01:24:20.371Z,3.40
2023-03-06T01:27:24.709Z,3.42
2023-03-06T01:30:29.302Z,2.70
2023-03-06T01:33:35.404Z,2.60
2023-03-06T01:36:39.976Z,2.63
2023-03-06T01:39:44.286Z,2.47
2023-03-06T01:42:50.597Z,2.42
2023-03-06T01:46:25.269Z,1.98
2023-03-06T01:49:39.295Z,1.70
2023-03-06T01:52:59.549Z,1.83
2023-03-06T01:56:04.722Z,1.88
2023-03-06T01:59:09.259Z,1.65
2023-03-06T02:02:15.223Z,1.45
2023-03-06T02:05:20.000Z,1.83
2023-03-06T02:08:26.531Z,1.88
2023-03-06T02:11:31.118Z,1.90
2023-03-06T02:14:36.288Z,1.75
2023-03-06T02:17:43.660Z,2.05
2023-03-06T02:20:54.323Z,1.67
2023-03-06T02:24:27.755Z,1.70
2023-03-06T02:27:32.420Z,1.80
2023-03-06T02:30:37.743Z,2.03
2023-03-06T02:33:41.929Z,1.73
2023-03-06T02:36:52.173Z,1.92
2023-03-06T02:40:09.408Z,1.40
2023-03-06T02:43:18.764Z,1.83
2023-03-06T02:46:23.127Z,1.90
2023-03-06T02:49:27.579Z,1.90
2023-03-06T02:52:32.390Z,2.83
2023-03-06T02:55:37.496Z,1.60
2023-03-06T02:58:43.005Z,1.83
2023-03-06T03:01:47.813Z,2.00
2023-03-06T03:04:52.447Z,2.10
2023-03-06T03:07:56.977Z,2.00
2023-03-06T03:11:02.201Z,2.75
2023-03-06T03:14:06.646Z,2.67
2023-03-06T03:17:11.066Z,2.40
2023-03-06T03:20:20.311Z,2.80
2023-03-06T03:23:25.998Z,4.13
2023-03-06T03:26:30.226Z,4.75
2023-03-06T03:29:34.776Z,5.20
2023-03-06T03:32:38.863Z,5.97
2023-03-06T03:35:43.470Z,7.40
2023-03-06T03:38:47.828Z,7.43
2023-03-06T03:41:52.447Z,8.05
2023-03-06T03:44:56.653Z,8.77
2023-03-06T03:48:00.938Z,8.60
2023-03-06T03:51:13.722Z,9.15
2023-03-06T03:54:18.042Z,10.00
2023-03-06T03:57:22.238Z,9.80
2023-03-06T04:00:27.002Z,10.20
2023-03-06T04:03:31.268Z,11.05
2023-03-06T04:06:35.501Z,12.00
2023-03-06T04:09:39.900Z,11.38
2023-03-06T04:12:44.184Z,11.73
2023-03-06T04:15:51.995Z,10.45
2023-03-06T04:18:56.605Z,10.27
2023-03-06T04:22:02.277Z,10.32
2023-03-06T04:25:07.197Z,9.02
2023-03-06T04:28:12.324Z,9.95
2023-03-06T04:31:16.736Z,9.32
2023-03-06T04:34:20.926Z,9.75
2023-03-06T04:37:26.559Z,8.40
2023-03-06T04:40:34.296Z,7.07
2023-03-06T04:43:39.554Z,6.97
2023-03-06T04:46:44.225Z,6.20
2023-03-06T04:49:48.536Z,5.80
2023-03-06T04:52:52.831Z,6.30
2023-03-06T04:55:57.152Z,6.00
2023-03-06T04:59:04.154Z,6.43
2023-03-06T05:02:08.973Z,6.13
2023-03-06T05:05:14.564Z,6.07
2023-03-06T05:08:18.979Z,8.32
2023-03-06T05:11:23.178Z,6.50
2023-03-06T05:14:30.553Z,6.50
2023-03-06T05:17:35.424Z,6.22
2023-03-06T05:20:39.993Z,7.03
2023-03-06T05:23:44.200Z,7.05
2023-03-06T05:26:48.380Z,7.05
2023-03-06T05:29:52.421Z,7.90
2023-03-06T05:32:56.687Z,8.05
2023-03-06T05:36:01.702Z,8.07
2023-03-06T05:39:06.457Z,9.45
2023-03-06T05:42:11.065Z,9.25
2023-03-06T05:45:15.198Z,11.65
2023-03-06T05:48:19.377Z,10.07
2023-03-06T05:51:24.526Z,12.10
2023-03-06T05:54:28.844Z,9.75
2023-03-06T05:57:33.151Z,10.02
2023-03-06T06:00:37.329Z,11.35
2023-03-06T06:03:42.178Z,10.70
2023-03-06T06:06:46.881Z,12.35
2023-03-06T06:09:53.509Z,10.73
2023-03-06T06:12:58.089Z,17.75
2023-03-06T06:16:19.413Z,11.13
2023-03-06T06:19:23.956Z,11.20
2023-03-06T06:22:28.054Z,13.05
2023-03-06T06:25:33.017Z,11.48
2023-03-06T06:28:37.855Z,12.60
2023-03-06T06:31:42.684Z,12.52
2023-03-06T06:34:47.360Z,11.93
2023-03-06T06:37:52.012Z,12.48
2023-03-06T06:41:27.140Z,12.45
2023-03-06T06:47:26.104Z,12.75
2023-03-06T06:50:30.661Z,10.93
2023-03-06T06:53:35.461Z,10.88
2023-03-06T06:56:39.815Z,10.85
2023-03-06T06:59:44.211Z,10.40
2023-03-06T07:02:51.315Z,10.60
2023-03-06T07:05:56.140Z,10.80
2023-03-06T07:09:00.333Z,10.32
2023-03-06T07:12:05.088Z,10.07
2023-03-06T07:15:14.027Z,9.38
2023-03-06T07:18:18.602Z,10.50
2023-03-06T07:21:23.215Z,9.55
2023-03-06T07:24:28.397Z,10.45
2023-03-06T07:27:32.922Z,10.00
2023-03-06T07:30:37.537Z,9.43
2023-03-06T07:33:42.315Z,9.93
2023-03-06T07:36:46.625Z,10.15
2023-03-06T07:39:50.995Z,11.00
2023-03-06T07:43:09.251Z,11.25
2023-03-06T07:46:21.589Z,11.82
2023-03-06T07:49:26.009Z,11.77
2023-03-06T07:52:30.382Z,12.18
2023-03-06T07:55:35.037Z,13.02
2023-03-06T07:58:42.348Z,10.68
2023-03-06T08:01:46.856Z,12.45
2023-03-06T08:04:55.662Z,10.88
2023-03-06T08:08:00.177Z,11.57
2023-03-06T08:11:09.698Z,11.65
2023-03-06T08:14:14.124Z,12.73
2023-03-06T08:17:18.255Z,12.55
2023-03-06T08:20:22.342Z,12.80
2023-03-06T08:23:26.910Z,13.00
2023-03-06T08:26:32.340Z,13.02
2023-03-06T08:29:36.537Z,12.63
2023-03-06T08:32:40.909Z,13.65
2023-03-06T08:35:45.561Z,14.85
2023-03-06T08:38:50.288Z,17.77
2023-03-06T08:41:55.122Z,15.57
2023-03-06T08:44:59.416Z,14.68
2023-03-06T08:48:04.502Z,15.43
2023-03-06T08:51:09.994Z,16.40
2023-03-06T08:54:14.773Z,16.95
2023-03-06T08:57:19.074Z,15.93
2023-03-06T09:00:24.516Z,15.60
2023-03-06T09:03:28.735Z,15.43
2023-03-06T09:06:36.951Z,15.70
2023-03-06T09:09:41.275Z,14.82
2023-03-06T09:12:51.395Z,14.15
2023-03-06T09:15:56.837Z,14.02
2023-03-06T09:19:01.182Z,14.63
2023-03-06T09:22:05.529Z,13.00
2023-03-06T09:25:13.170Z,13.50
2023-03-06T09:28:18.016Z,11.45
2023-03-06T09:31:22.554Z,12.40
2023-03-06T09:34:27.729Z,10.68
2023-03-06T09:37:32.466Z,10.25
2023-03-06T09:40:58.399Z,9.63
2023-03-06T09:44:14.621Z,8.35
2023-03-06T09:48:04.157Z,7.72
2023-03-06T09:51:17.154Z,8.43
2023-03-06T09:54:32.804Z,6.43
2023-03-06T09:57:59.831Z,5.63
2023-03-06T10:01:23.542Z,5.68
2023-03-06T10:04:43.942Z,5.47
2023-03-06T10:08:23.241Z,5.32
2023-03-06T10:12:03.741Z,4.65
2023-03-06T10:15:26.794Z,4.80
2023-03-06T10:18:32.217Z,3.95
2023-03-06T10:21:50.233Z,3.30
2023-03-06T10:25:29.545Z,2.60
2023-03-06T10:28:57.691Z,2.67
2023-03-06T10:32:46.177Z,1.60
2023-03-06T10:35:56.305Z,1.60
2023-03-06T10:39:04.662Z,1.60
2023-03-06T10:42:09.453Z,1.10
2023-03-06T10:45:17.657Z,0.90
2023-03-06T10:48:29.934Z,0.75
2023-03-06T10:51:35.528Z,0.82
2023-03-06T10:54:43.634Z,0.77
2023-03-06T10:57:48.204Z,0.80
2023-03-06T11:01:21.951Z,0.60
2023-03-06T11:04:35.610Z,1.40
2023-03-06T11:07:56.038Z,0.50
2023-03-06T11:11:08.817Z,0.73
2023-03-06T11:14:27.468Z,0.68
2023-03-06T11:17:33.295Z,1.10
2023-03-06T11:20:52.904Z,0.60
2023-03-06T11:24:20.028Z,1.20
2023-03-06T11:27:34.480Z,1.20
2023-03-06T11:30:49.938Z,0.98
2023-03-06T11:34:05.991Z,1.60
2023-03-06T11:37:32.316Z,0.40
2023-03-06T11:41:00.292Z,0.90
2023-03-06T11:44:46.437Z,1.10
2023-03-06T11:48:15.894Z,0.80
2023-03-06T11:51:28.609Z,2.92
2023-03-06T11:54:33.744Z,0.80
2023-03-06T11:58:29.993Z,0.85
2023-03-06T12:02:02.586Z,0.77
2023-03-06T12:05:31.673Z,1.00
2023-03-06T12:09:06.278Z,1.02
2023-03-06T12:12:30.664Z,1.35
2023-03-06T12:16:02.923Z,0.90
2023-03-06T12:19:46.255Z,0.80
2023-03-06T12:23:16.833Z,0.75
2023-03-06T12:26:42.158Z,0.88
2023-03-06T12:30:11.290Z,0.70
2023-03-06T12:34:04.131Z,1.27
2023-03-06T12:37:21.525Z,0.98
2023-03-06T12:40:50.330Z,0.82
2023-03-06T12:44:16.394Z,0.70
2023-03-06T12:47:23.698Z,0.60
2023-03-06T12:50:37.013Z,1.60
2023-03-06T12:53:42.296Z,0.63
2023-03-06T12:56:48.713Z,0.75
2023-03-06T12:59:54.706Z,0.90
2023-03-06T13:03:24.392Z,1.17
2023-03-06T13:06:56.790Z,0.90
2023-03-06T13:10:32.116Z,0.90
2023-03-06T13:13:47.244Z,1.08
2023-03-06T13:16:51.778Z,1.05
2023-03-06T13:20:45.006Z,1.02
2023-03-06T13:23:52.306Z,1.63
2023-03-06T13:27:00.123Z,0.60
2023-03-06T13:30:24.102Z,1.30
2023-03-06T13:33:30.063Z,1.00
2023-03-06T13:36:39.466Z,1.67
2023-03-06T13:40:14.380Z,1.55
2023-03-06T13:43:21.952Z,1.10
2023-03-06T13:46:37.017Z,0.40
2023-03-06T13:49:47.488Z,0.70
2023-03-06T13:53:08.358Z,0.60
2023-03-06T13:56:34.198Z,0.40
2023-03-06T14:00:14.328Z,0.52
2023-03-06T14:04:00.111Z,0.80
2023-03-06T14:07:11.668Z,0.80
2023-03-06T14:10:26.719Z,0.60
2023-03-06T14:13:47.137Z,0.40
2023-03-06T14:16:53.577Z,0.70
2023-03-06T14:20:15.554Z,0.60
2023-03-06T14:23:32.367Z,2.42
2023-03-06T14:26:48.635Z,0.93
2023-03-06T14:30:11.881Z,8.10
2023-03-06T14:33:42.057Z,1.25
2023-03-06T14:36:50.117Z,2.72
2023-03-06T14:39:56.263Z,2.08
2023-03-06T14:43:18.851Z,4.07
2023-03-06T14:46:23.657Z,3.50
2023-03-06T14:49:28.421Z,1.50
2023-03-06T14:52:33.537Z,1.30
2023-03-06T14:55:38.057Z,2.10
2023-03-06T14:59:01.400Z,1.23
2023-03-06T15:02:11.158Z,1.38
2023-03-06T15:05:29.856Z,1.27
2023-03-06T15:08:39.270Z,0.82
2023-03-06T15:12:29.719Z,0.80
2023-03-06T15:15:34.063Z,1.17
2023-03-06T15:19:00.119Z,1.65
2023-03-06T15:22:05.021Z,1.10
2023-03-06T15:25:26.812Z,2.00
2023-03-06T15:28:38.602Z,1.85
2023-03-06T15:31:46.698Z,6.47
2023-03-06T15:35:37.342Z,4.78
2023-03-06T15:38:45.453Z,1.95
2023-03-06T15:42:09.001Z,2.15
2023-03-06T15:45:22.700Z,10.18
2023-03-06T15:48:28.389Z,6.30
2023-03-06T15:51:33.487Z,4.38
2023-03-06T15:54:38.071Z,3.78
2023-03-06T15:57:55.324Z,1.75
2023-03-06T16:01:06.132Z,3.13
2023-03-06T16:04:10.762Z,2.05
2023-03-06T16:07:15.977Z,1.50
2023-03-06T16:10:27.510Z,2.20
2023-03-06T16:13:33.519Z,12.63
2023-03-06T16:16:39.580Z,3.33
2023-03-06T16:19:44.219Z,3.65
2023-03-06T16:22:49.847Z,1.77
2023-03-06T16:25:54.067Z,4.63
2023-03-06T16:28:58.441Z,3.20
2023-03-06T16:32:03.309Z,3.90
2023-03-06T16:35:08.009Z,2.80
2023-03-06T16:38:12.366Z,1.52
2023-03-06T16:41:18.405Z,1.55
2023-03-06T16:44:22.942Z,1.23
2023-03-06T16:47:27.021Z,1.10
2023-03-06T16:50:36.911Z,1.52
2023-03-06T16:53:41.137Z,1.35
2023-03-06T16:56:46.181Z,2.42
2023-03-06T16:59:51.404Z,5.10
2023-03-06T17:02:56.137Z,3.80
2023-03-06T17:06:01.521Z,3.10
2023-03-06T17:09:06.686Z,4.13
2023-03-06T17:12:10.828Z,4.18
2023-03-06T17:21:26.551Z,4.30
2023-03-06T17:24:31.220Z,2.85
2023-03-06T17:27:36.418Z,2.10
2023-03-06T17:30:40.891Z,2.20
2023-03-06T17:33:45.844Z,1.90
2023-03-06T17:36:50.226Z,2.10
2023-03-06T17:39:54.395Z,3.03
2023-03-06T17:42:58.849Z,2.63
2023-03-06T17:46:09.145Z,2.35
2023-03-06T17:49:13.852Z,2.92
2023-03-06T17:52:17.932Z,2.45
2023-03-06T17:55:22.241Z,1.67
2023-03-06T17:58:27.309Z,1.85
2023-03-06T18:01:31.914Z,2.75
2023-03-06T18:04:36.343Z,2.38
2023-03-06T18:07:40.897Z,3.85
2023-03-06T18:10:45.269Z,3.33
2023-03-06T18:13:50.569Z,3.55
2023-03-06T18:16:55.025Z,3.55
2023-03-06T18:19:59.749Z,3.90
2023-03-06T18:23:04.090Z,3.90
2023-03-06T18:26:11.533Z,3.33
2023-03-06T18:29:16.251Z,4.05
2023-03-06T18:32:20.401Z,4.25
2023-03-06T18:35:25.247Z,3.58
2023-03-06T18:38:29.819Z,3.60
2023-03-06T18:41:34.551Z,3.10
2023-03-06T18:44:39.219Z,3.92
2023-03-06T18:47:43.625Z,3.28
2023-03-06T18:50:48.128Z,4.00
2023-03-06T18:53:52.901Z,3.67
2023-03-06T18:56:57.513Z,3.22
2023-03-06T19:00:02.333Z,3.13
2023-03-06T19:03:07.025Z,4.22
2023-03-06T19:06:14.079Z,7.18
2023-03-06T19:09:19.228Z,3.63
2023-03-06T19:12:24.118Z,5.00
2023-03-06T19:15:28.579Z,4.15
2023-03-06T19:18:33.085Z,3.80
2023-03-06T19:21:37.606Z,4.15
2023-03-06T19:24:41.959Z,4.57
2023-03-06T19:27:46.585Z,6.60
2023-03-06T19:30:51.341Z,7.20
2023-03-06T19:33:56.958Z,6.47
2023-03-06T19:37:01.581Z,7.47
2023-03-06T19:40:07.146Z,5.25
2023-03-06T19:43:11.336Z,6.85
2023-03-06T19:46:16.042Z,4.95
2023-03-06T19:49:22.163Z,2.88
2023-03-06T19:52:26.703Z,7.90
2023-03-06T19:55:31.752Z,6.30
2023-03-06T19:58:36.235Z,6.75
2023-03-06T20:01:40.555Z,5.68
2023-03-06T20:04:45.169Z,4.22
2023-03-06T20:07:49.987Z,9.93
2023-03-06T20:10:54.403Z,3.72
2023-03-06T20:14:03.996Z,7.82
2023-03-06T20:17:08.849Z,2.40
2023-03-06T20:20:13.537Z,3.40
2023-03-06T20:23:17.608Z,3.40
2023-03-06T20:26:22.014Z,3.53
2023-03-06T20:29:28.415Z,3.30
2023-03-06T20:32:33.397Z,3.10
2023-03-06T20:35:42.728Z,3.00
2023-03-06T20:38:47.856Z,2.58
2023-03-06T20:41:52.287Z,2.80
2023-03-06T20:44:56.529Z,2.90
2023-03-06T20:48:01.429Z,2.70
2023-03-06T20:51:14.867Z,3.50
2023-03-06T20:54:20.366Z,2.58
2023-03-06T20:57:24.699Z,3.13
2023-03-06T21:00:28.873Z,3.17
2023-03-06T21:03:33.426Z,2.58
2023-03-06T21:06:38.187Z,2.45
2023-03-06T21:09:43.149Z,1.90
2023-03-06T21:12:47.272Z,1.92
2023-03-06T21:15:51.903Z,2.55
2023-03-06T21:18:58.257Z,2.60
2023-03-06T21:22:02.555Z,2.50
2023-03-06T21:25:06.964Z,2.97
2023-03-06T21:28:11.322Z,2.38
2023-03-06T21:31:19.036Z,2.22
2023-03-06T21:34:23.125Z,2.17
2023-03-06T21:37:27.297Z,2.47
2023-03-06T21:40:31.984Z,2.42
2023-03-06T21:43:36.335Z,2.13
2023-03-06T21:46:40.576Z,2.42
2023-03-06T21:49:45.050Z,2.65
2023-03-06T21:52:50.959Z,2.40
2023-03-06T21:55:55.076Z,2.53
2023-03-06T21:58:59.611Z,2.72
2023-03-06T22:02:03.835Z,2.80
2023-03-06T22:05:08.389Z,3.10
2023-03-06T22:08:14.338Z,3.58
2023-03-06T22:11:21.729Z,3.33
2023-03-06T22:14:26.236Z,3.88
2023-03-06T22:17:31.623Z,3.78
2023-03-06T22:20:39.368Z,4.38
2023-03-06T22:23:44.169Z,4.03
2023-03-06T22:26:48.589Z,4.10
2023-03-06T22:29:53.238Z,4.32
2023-03-06T22:32:57.677Z,4.82
2023-03-06T22:36:08.873Z,4.05
2023-03-06T22:39:14.013Z,5.00
2023-03-06T22:42:18.311Z,4.38
2023-03-06T22:45:23.191Z,5.38
2023-03-06T22:48:27.826Z,4.88
2023-03-06T22:51:32.334Z,5.60
2023-03-06T22:54:36.517Z,5.57
2023-03-06T22:57:44.252Z,5.90
2023-03-06T23:00:48.642Z,6.20
2023-03-06T23:03:59.226Z,6.13
2023-03-06T23:07:04.570Z,6.95
2023-03-06T23:10:09.913Z,7.18
2023-03-06T23:13:14.454Z,7.85
2023-03-06T23:16:18.950Z,8.00
2023-03-06T23:19:23.327Z,8.88
2023-03-06T23:22:27.557Z,9.23
2023-03-06T23:25:32.023Z,10.48
2023-03-06T23:28:36.585Z,11.13
2023-03-06T23:31:40.999Z,11.50
2023-03-06T23:34:48.964Z,12.73
2023-03-06T23:37:53.380Z,13.05
2023-03-06T23:44:09.496Z,13.70
2023-03-06T23:47:13.946Z,14.63
2023-03-06T23:50:18.074Z,13.75
2023-03-06T23:53:22.410Z,13.68
2023-03-06T23:56:28.559Z,15.18
2023-03-06T23:59:32.992Z,15.73
